Time;durP1;ratioP1;P1;durP2;ratioP2;P2;SDS_P1;SDS_P2;PMS_P1;PMS_P2;Temp;Humidity;BMP_temperature;BMP_pressure;BME280_temperature;BME280_humidity;BME280_pressure;Samples;Min_cycle;Max_cycle;Signal;HPM_P1;HPM_P2
2022/01/05 00:00:33;;;;;;;0.50;0.50;;;;;;;;;;5032244;28;20489;-59
2022/01/05 00:02:59;;;;;;;0.50;0.50;;;;;;;;;;5034262;28;20185;-60
2022/01/05 00:05:24;;;;;;;0.50;0.50;;;;;;;;;;5035727;28;20184;-62
2022/01/05 00:07:50;;;;;;;0.50;0.50;;;;;;;;;;5035628;28;20413;-60
2022/01/05 00:10:17;;;;;;;0.50;0.50;;;;;;;;;;5035265;28;20428;-62
2022/01/05 00:12:43;;;;;;;0.40;0.40;;;;;;;;;;5034789;28;20183;-61
2022/01/05 00:15:09;;;;;;;0.50;0.50;;;;;;;;;;5035176;28;20696;-62
2022/01/05 00:17:35;;;;;;;0.50;0.50;;;;;;;;;;5034746;28;20488;-62
2022/01/05 00:20:02;;;;;;;0.60;0.60;;;;;;;;;;5034699;28;20303;-62
2022/01/05 00:22:28;;;;;;;0.60;0.60;;;;;;;;;;5034844;28;20430;-62
2022/01/05 00:24:54;;;;;;;0.60;0.60;;;;;;;;;;5035063;28;20309;-62
2022/01/05 00:27:20;;;;;;;0.50;0.50;;;;;;;;;;5034956;28;20399;-62
2022/01/05 00:29:46;;;;;;;0.43;0.43;;;;;;;;;;5034516;28;20239;-62
2022/01/05 00:32:12;;;;;;;0.50;0.50;;;;;;;;;;5034592;28;20178;-62
2022/01/05 00:34:38;;;;;;;0.53;0.53;;;;;;;;;;5034242;28;20189;-62
2022/01/05 00:37:04;;;;;;;0.50;0.50;;;;;;;;;;5034549;28;20416;-62
2022/01/05 00:39:30;;;;;;;0.50;0.50;;;;;;;;;;5034381;28;20553;-62
2022/01/05 00:41:56;;;;;;;0.60;0.60;;;;;;;;;;5034765;28;20681;-62
2022/01/05 00:44:24;;;;;;;0.50;0.50;;;;;;;;;;5034479;28;20411;-62
2022/01/05 00:46:50;;;;;;;0.50;0.50;;;;;;;;;;5033122;28;20790;-62
2022/01/05 00:49:16;;;;;;;0.47;0.47;;;;;;;;;;5034400;28;20205;-60
2022/01/05 00:51:42;;;;;;;0.40;0.40;;;;;;;;;;5034665;28;20225;-62
2022/01/05 00:54:08;;;;;;;0.60;0.60;;;;;;;;;;5034467;28;20606;-62
2022/01/05 00:56:34;;;;;;;0.50;0.50;;;;;;;;;;5034330;28;20183;-62
2022/01/05 00:59:00;;;;;;;0.55;0.55;;;;;;;;;;5033177;28;21061;-62
2022/01/05 01:01:26;;;;;;;0.50;0.50;;;;;;;;;;5034330;28;20179;-62
2022/01/05 01:03:52;;;;;;;0.60;0.60;;;;;;;;;;5034452;28;20404;-62
2022/01/05 01:06:18;;;;;;;0.60;0.60;;;;;;;;;;5034255;28;20183;-62
2022/01/05 01:08:44;;;;;;;0.50;0.50;;;;;;;;;;5033981;28;20543;-62
2022/01/05 01:11:10;;;;;;;0.50;0.50;;;;;;;;;;5033916;28;20420;-62
2022/01/05 01:13:36;;;;;;;0.50;0.50;;;;;;;;;;5033227;28;20413;-62
2022/01/05 01:16:02;;;;;;;0.50;0.50;;;;;;;;;;5032564;28;20920;-62
2022/01/05 01:18:29;;;;;;;0.50;0.50;;;;;;;;;;5033537;28;20465;-61
2022/01/05 01:20:54;;;;;;;0.50;0.50;;;;;;;;;;5033591;28;20217;-62
2022/01/05 01:23:22;;;;;;;0.50;0.50;;;;;;;;;;5033750;28;20550;-62
2022/01/05 01:25:52;;;;;;;0.50;0.50;;;;;;;;;;5032423;28;20422;-62
2022/01/05 01:28:19;;;;;;;0.50;0.50;;;;;;;;;;5033463;28;20184;-62
2022/01/05 01:30:45;;;;;;;0.50;0.50;;;;;;;;;;5033402;28;20228;-62
2022/01/05 01:33:11;;;;;;;0.50;0.50;;;;;;;;;;5033359;28;20179;-61
2022/01/05 01:35:37;;;;;;;0.50;0.50;;;;;;;;;;5033684;28;20190;-62
2022/01/05 01:38:03;;;;;;;0.50;0.50;;;;;;;;;;5033479;28;20458;-62
2022/01/05 01:40:29;;;;;;;0.50;0.50;;;;;;;;;;5035932;28;20196;-62
2022/01/05 01:42:55;;;;;;;0.50;0.50;;;;;;;;;;5031899;28;20421;-60
2022/01/05 01:45:21;;;;;;;0.60;0.60;;;;;;;;;;5033502;28;20402;-60
2022/01/05 01:47:47;;;;;;;0.50;0.50;;;;;;;;;;5032627;28;20182;-62
2022/01/05 01:50:13;;;;;;;0.50;0.50;;;;;;;;;;5031459;28;20200;-62
2022/01/05 01:52:39;;;;;;;0.60;0.60;;;;;;;;;;5033318;28;20455;-61
2022/01/05 01:55:06;;;;;;;0.50;0.50;;;;;;;;;;5033285;28;20197;-62
2022/01/05 01:57:34;;;;;;;0.50;0.50;;;;;;;;;;5033276;28;20259;-62
2022/01/05 02:00:00;;;;;;;0.60;0.60;;;;;;;;;;5033459;28;20202;-62
2022/01/05 02:02:26;;;;;;;0.50;0.50;;;;;;;;;;5033148;28;20172;-61
2022/01/05 02:04:52;;;;;;;0.60;0.60;;;;;;;;;;5033184;28;20226;-61
2022/01/05 02:07:18;;;;;;;0.50;0.50;;;;;;;;;;5033220;28;20254;-62
2022/01/05 02:09:45;;;;;;;0.50;0.50;;;;;;;;;;5033048;28;20692;-60
2022/01/05 02:12:11;;;;;;;0.50;0.50;;;;;;;;;;5032844;28;20173;-60
2022/01/05 02:14:37;;;;;;;0.60;0.60;;;;;;;;;;5032796;28;20180;-61
2022/01/05 02:17:08;;;;;;;0.50;0.50;;;;;;;;;;5032919;28;20183;-62
2022/01/05 02:19:34;;;;;;;0.43;0.43;;;;;;;;;;5032495;28;20218;-62
2022/01/05 02:22:00;;;;;;;0.50;0.50;;;;;;;;;;5032642;28;20184;-61
2022/01/05 02:24:26;;;;;;;0.50;0.50;;;;;;;;;;5032494;28;20454;-62
2022/01/05 02:26:52;;;;;;;0.60;0.60;;;;;;;;;;5032631;28;20402;-61
2022/01/05 02:29:18;;;;;;;0.50;0.50;;;;;;;;;;5032669;28;20443;-62
2022/01/05 02:31:44;;;;;;;0.50;0.50;;;;;;;;;;5032739;28;21097;-61
2022/01/05 02:34:10;;;;;;;0.50;0.50;;;;;;;;;;5032261;28;20432;-60
2022/01/05 02:36:36;;;;;;;0.70;0.70;;;;;;;;;;5032404;28;20192;-62
2022/01/05 02:39:03;;;;;;;0.60;0.60;;;;;;;;;;5032237;28;20208;-59
2022/01/05 02:41:28;;;;;;;0.50;0.50;;;;;;;;;;5032173;28;20442;-62
2022/01/05 02:43:54;;;;;;;0.50;0.50;;;;;;;;;;5032147;28;20217;-61
2022/01/05 02:46:22;;;;;;;0.53;0.53;;;;;;;;;;5032222;28;20414;-61
2022/01/05 02:48:50;;;;;;;0.50;0.50;;;;;;;;;;5031955;28;20417;-60
2022/01/05 02:51:16;;;;;;;0.60;0.60;;;;;;;;;;5032051;28;20180;-62
2022/01/05 02:53:42;;;;;;;0.50;0.50;;;;;;;;;;5032289;28;20639;-62
2022/01/05 02:56:08;;;;;;;0.60;0.60;;;;;;;;;;5032675;28;20224;-62
2022/01/05 02:58:34;;;;;;;0.60;0.60;;;;;;;;;;5032086;28;20499;-61
2022/01/05 03:01:01;;;;;;;0.50;0.50;;;;;;;;;;5032020;28;20234;-61
2022/01/05 03:03:26;;;;;;;0.50;0.50;;;;;;;;;;4997858;28;20506;-61
2022/01/05 03:05:53;;;;;;;0.50;0.50;;;;;;;;;;5031793;28;20258;-61
2022/01/05 03:08:19;;;;;;;0.50;0.50;;;;;;;;;;5032077;28;20437;-61
2022/01/05 03:10:45;;;;;;;0.50;0.50;;;;;;;;;;5031763;28;20682;-61
2022/01/05 03:13:11;;;;;;;0.50;0.50;;;;;;;;;;5031558;28;20183;-60
2022/01/05 03:15:37;;;;;;;0.50;0.50;;;;;;;;;;5031886;28;20420;-61
2022/01/05 03:18:03;;;;;;;0.50;0.50;;;;;;;;;;5031756;28;20545;-61
2022/01/05 03:20:30;;;;;;;0.50;0.50;;;;;;;;;;5031539;28;20457;-61
2022/01/05 03:22:56;;;;;;;0.50;0.50;;;;;;;;;;5031977;28;20181;-61
2022/01/05 03:25:22;;;;;;;0.50;0.50;;;;;;;;;;5032081;28;20174;-60
2022/01/05 03:27:49;;;;;;;0.50;0.50;;;;;;;;;;5032148;28;20177;-60
2022/01/05 03:30:17;;;;;;;0.40;0.40;;;;;;;;;;5031961;28;20438;-61
2022/01/05 03:33:07;;;;;;;0.43;0.43;;;;;;;;;;5031860;28;20176;-62
2022/01/05 03:35:31;;;;;;;0.60;0.60;;;;;;;;;;5031353;28;20183;-61
2022/01/05 03:37:57;;;;;;;0.50;0.50;;;;;;;;;;5035622;28;20527;-61
2022/01/05 03:40:25;;;;;;;0.50;0.50;;;;;;;;;;5036557;28;20217;-62
2022/01/05 03:42:51;;;;;;;0.50;0.50;;;;;;;;;;5017588;28;20175;-61
2022/01/05 03:45:17;;;;;;;0.50;0.50;;;;;;;;;;5036003;28;20208;-61
2022/01/05 03:47:43;;;;;;;0.50;0.50;;;;;;;;;;5035940;28;20590;-61
2022/01/05 03:50:09;;;;;;;0.50;0.50;;;;;;;;;;5035761;28;20439;-61
2022/01/05 03:52:35;;;;;;;0.60;0.60;;;;;;;;;;5035483;28;20438;-61
2022/01/05 03:55:02;;;;;;;0.50;0.50;;;;;;;;;;5035746;28;20566;-61
2022/01/05 03:57:28;;;;;;;0.50;0.50;;;;;;;;;;5035415;28;20176;-61
2022/01/05 03:59:54;;;;;;;0.50;0.50;;;;;;;;;;5035220;28;20254;-61
2022/01/05 04:02:20;;;;;;;0.50;0.50;;;;;;;;;;5035767;28;20562;-61
2022/01/05 04:04:46;;;;;;;0.50;0.50;;;;;;;;;;5035557;28;20414;-61
2022/01/05 04:07:13;;;;;;;0.50;0.50;;;;;;;;;;5035897;28;20172;-62
2022/01/05 04:09:39;;;;;;;0.50;0.50;;;;;;;;;;5035626;28;20681;-61
2022/01/05 04:12:05;;;;;;;0.50;0.50;;;;;;;;;;5035846;28;20186;-62
2022/01/05 04:14:31;;;;;;;0.60;0.60;;;;;;;;;;5017634;28;20412;-61
2022/01/05 04:16:57;;;;;;;0.50;0.50;;;;;;;;;;5035144;28;20180;-61
2022/01/05 04:19:23;;;;;;;0.50;0.50;;;;;;;;;;5034742;28;20538;-61
2022/01/05 04:21:49;;;;;;;0.50;0.50;;;;;;;;;;5034903;28;20403;-62
2022/01/05 04:24:15;;;;;;;0.50;0.50;;;;;;;;;;5058398;22;20238;-64
2022/01/05 04:26:41;;;;;;;0.50;0.50;;;;;;;;;;5034481;28;20261;-64
2022/01/05 04:29:07;;;;;;;0.50;0.50;;;;;;;;;;5034288;28;20255;-64
2022/01/05 04:31:33;;;;;;;0.50;0.50;;;;;;;;;;5034233;28;20706;-64
2022/01/05 04:33:59;;;;;;;0.50;0.50;;;;;;;;;;5034181;28;20430;-64
2022/01/05 04:36:26;;;;;;;0.50;0.50;;;;;;;;;;5034173;28;20410;-64
2022/01/05 04:38:52;;;;;;;0.50;0.50;;;;;;;;;;5034529;28;20600;-64
2022/01/05 04:41:18;;;;;;;0.50;0.50;;;;;;;;;;5034458;28;20197;-65
2022/01/05 04:43:43;;;;;;;0.50;0.50;;;;;;;;;;5016201;28;20430;-65
2022/01/05 04:46:09;;;;;;;0.50;0.50;;;;;;;;;;5034173;28;20399;-65
2022/01/05 04:48:36;;;;;;;0.50;0.50;;;;;;;;;;5034084;28;20184;-65
2022/01/05 04:51:02;;;;;;;0.50;0.50;;;;;;;;;;5034283;28;20412;-65
2022/01/05 04:53:28;;;;;;;0.50;0.50;;;;;;;;;;5033852;28;20288;-65
2022/01/05 04:55:54;;;;;;;0.50;0.50;;;;;;;;;;5034230;28;20211;-65
2022/01/05 04:58:20;;;;;;;0.50;0.50;;;;;;;;;;5034183;28;20556;-65
2022/01/05 05:00:46;;;;;;;0.50;0.50;;;;;;;;;;5034283;28;20639;-65
2022/01/05 05:03:12;;;;;;;0.50;0.50;;;;;;;;;;5033317;28;20208;-65
2022/01/05 05:05:39;;;;;;;0.50;0.50;;;;;;;;;;5033900;28;20418;-65
2022/01/05 05:08:05;;;;;;;0.50;0.50;;;;;;;;;;5034231;28;20194;-65
2022/01/05 05:10:31;;;;;;;0.50;0.50;;;;;;;;;;5033811;28;20262;-65
2022/01/05 05:12:57;;;;;;;0.50;0.50;;;;;;;;;;5033639;28;20433;-65
2022/01/05 05:15:23;;;;;;;0.50;0.50;;;;;;;;;;5033712;28;20651;-65
2022/01/05 05:17:48;;;;;;;0.50;0.50;;;;;;;;;;5033618;28;20224;-65
2022/01/05 05:20:15;;;;;;;0.50;0.50;;;;;;;;;;5033410;28;20410;-64
2022/01/05 05:22:41;;;;;;;0.50;0.50;;;;;;;;;;5033035;28;20430;-65
2022/01/05 05:25:07;;;;;;;0.50;0.50;;;;;;;;;;5033393;28;20214;-65
2022/01/05 05:27:33;;;;;;;0.50;0.50;;;;;;;;;;5033360;28;20258;-65
2022/01/05 05:29:59;;;;;;;0.60;0.60;;;;;;;;;;5015641;28;20277;-65
2022/01/05 05:32:25;;;;;;;0.50;0.50;;;;;;;;;;5033269;28;20429;-65
2022/01/05 05:34:51;;;;;;;0.60;0.60;;;;;;;;;;5033426;28;20461;-65
2022/01/05 05:37:17;;;;;;;0.50;0.50;;;;;;;;;;5033238;28;20433;-65
2022/01/05 05:39:43;;;;;;;0.60;0.60;;;;;;;;;;5033215;28;20990;-65
2022/01/05 05:42:11;;;;;;;0.50;0.50;;;;;;;;;;5033047;28;20254;-65
2022/01/05 05:44:37;;;;;;;0.50;0.50;;;;;;;;;;5032854;28;20194;-65
2022/01/05 05:47:03;;;;;;;0.52;0.52;;;;;;;;;;5032963;28;20180;-64
2022/01/05 05:49:29;;;;;;;0.60;0.60;;;;;;;;;;5032893;28;20223;-65
2022/01/05 05:51:55;;;;;;;0.50;0.50;;;;;;;;;;5033016;28;20178;-65
2022/01/05 05:54:21;;;;;;;0.60;0.60;;;;;;;;;;5032690;28;20201;-65
2022/01/05 05:56:47;;;;;;;0.60;0.60;;;;;;;;;;5032914;28;20636;-65
2022/01/05 05:59:13;;;;;;;0.60;0.60;;;;;;;;;;5032361;28;20297;-65
2022/01/05 06:01:39;;;;;;;0.50;0.50;;;;;;;;;;5032026;28;20514;-65
2022/01/05 06:04:05;;;;;;;0.50;0.50;;;;;;;;;;5032153;28;20606;-64
2022/01/05 06:06:31;;;;;;;0.50;0.50;;;;;;;;;;5031927;28;20259;-65
2022/01/05 06:08:57;;;;;;;0.50;0.50;;;;;;;;;;5032316;28;20984;-64
2022/01/05 06:11:23;;;;;;;0.60;0.60;;;;;;;;;;5032646;28;20408;-64
2022/01/05 06:13:50;;;;;;;0.50;0.50;;;;;;;;;;5044342;28;20203;-65
2022/01/05 06:16:16;;;;;;;0.60;0.60;;;;;;;;;;5052415;28;20418;-64
2022/01/05 06:18:42;;;;;;;0.60;0.60;;;;;;;;;;5052158;28;20659;-65
2022/01/05 06:21:08;;;;;;;0.60;0.60;;;;;;;;;;5052326;28;20168;-64
2022/01/05 06:23:34;;;;;;;0.50;0.50;;;;;;;;;;5051929;28;20221;-64
2022/01/05 06:25:59;;;;;;;0.50;0.50;;;;;;;;;;5040153;28;20412;-64
2022/01/05 06:28:25;;;;;;;0.60;0.60;;;;;;;;;;5031952;28;20445;-65
2022/01/05 06:30:51;;;;;;;0.50;0.50;;;;;;;;;;5031924;28;20436;-65
2022/01/05 06:33:17;;;;;;;0.60;0.60;;;;;;;;;;5031510;28;20206;-65
2022/01/05 06:35:43;;;;;;;0.50;0.50;;;;;;;;;;5031798;28;20442;-65
2022/01/05 06:38:09;;;;;;;0.50;0.50;;;;;;;;;;5031411;28;20599;-64
2022/01/05 06:40:36;;;;;;;0.57;0.57;;;;;;;;;;5031698;28;20456;-62
2022/01/05 06:43:02;;;;;;;0.60;0.60;;;;;;;;;;5031564;28;20666;-62
2022/01/05 06:45:28;;;;;;;0.50;0.50;;;;;;;;;;5031639;28;20205;-62
2022/01/05 06:47:54;;;;;;;0.50;0.50;;;;;;;;;;5031696;28;20863;-63
2022/01/05 06:50:20;;;;;;;0.68;0.68;;;;;;;;;;5031544;28;20667;-63
2022/01/05 06:52:46;;;;;;;0.60;0.60;;;;;;;;;;5031059;28;20266;-63
2022/01/05 06:55:12;;;;;;;0.50;0.50;;;;;;;;;;5031649;28;20202;-63
2022/01/05 06:57:40;;;;;;;0.50;0.50;;;;;;;;;;5031397;28;20478;-63
2022/01/05 07:00:07;;;;;;;0.50;0.50;;;;;;;;;;5031265;28;20476;-63
2022/01/05 07:02:33;;;;;;;0.50;0.50;;;;;;;;;;5030956;28;20189;-63
2022/01/05 07:04:59;;;;;;;0.50;0.50;;;;;;;;;;5031221;28;20209;-63
2022/01/05 07:07:25;;;;;;;0.50;0.50;;;;;;;;;;5031044;28;20432;-63
2022/01/05 07:09:51;;;;;;;0.50;0.50;;;;;;;;;;5031084;28;20431;-63
2022/01/05 07:12:17;;;;;;;0.50;0.50;;;;;;;;;;5030233;28;20428;-63
2022/01/05 07:14:43;;;;;;;0.50;0.50;;;;;;;;;;5030621;28;20454;-64
2022/01/05 07:17:09;;;;;;;0.50;0.50;;;;;;;;;;5011672;28;20450;-64
2022/01/05 07:19:35;;;;;;;0.50;0.50;;;;;;;;;;5026842;28;20459;-63
2022/01/05 07:22:01;;;;;;;0.60;0.60;;;;;;;;;;5013660;28;20180;-64
2022/01/05 07:24:27;;;;;;;0.57;0.57;;;;;;;;;;5030762;28;20447;-64
2022/01/05 07:26:53;;;;;;;0.50;0.50;;;;;;;;;;5031058;28;20508;-64
2022/01/05 07:29:19;;;;;;;0.50;0.50;;;;;;;;;;5030988;28;20905;-63
2022/01/05 07:31:45;;;;;;;0.68;0.68;;;;;;;;;;5031391;28;20268;-63
2022/01/05 07:34:12;;;;;;;0.50;0.50;;;;;;;;;;5030819;28;20279;-64
2022/01/05 07:36:38;;;;;;;0.60;0.60;;;;;;;;;;5013717;28;20182;-63
2022/01/05 07:39:05;;;;;;;0.60;0.60;;;;;;;;;;5030803;28;20758;-64
2022/01/05 07:41:31;;;;;;;0.60;0.60;;;;;;;;;;5030951;28;20502;-63
2022/01/05 07:43:57;;;;;;;0.60;0.60;;;;;;;;;;5030816;28;20711;-63
2022/01/05 07:46:23;;;;;;;0.60;0.60;;;;;;;;;;5030708;28;20264;-61
2022/01/05 07:48:49;;;;;;;0.60;0.60;;;;;;;;;;5030726;28;20872;-63
2022/01/05 07:51:15;;;;;;;0.60;0.60;;;;;;;;;;5031084;28;20419;-61
2022/01/05 07:53:42;;;;;;;0.50;0.50;;;;;;;;;;5030625;28;20526;-63
2022/01/05 07:56:08;;;;;;;0.50;0.50;;;;;;;;;;5030449;28;20246;-63
2022/01/05 07:58:34;;;;;;;0.70;0.70;;;;;;;;;;5030701;28;20575;-63
2022/01/05 08:01:00;;;;;;;0.50;0.50;;;;;;;;;;5030631;28;20188;-62
2022/01/05 08:03:26;;;;;;;0.60;0.60;;;;;;;;;;5030354;28;20189;-63
2022/01/05 08:05:53;;;;;;;0.70;0.70;;;;;;;;;;5031188;28;20423;-63
2022/01/05 08:08:18;;;;;;;0.60;0.60;;;;;;;;;;5030799;28;20177;-63
2022/01/05 08:10:44;;;;;;;0.50;0.50;;;;;;;;;;5030620;28;20190;-62
2022/01/05 08:13:10;;;;;;;0.60;0.60;;;;;;;;;;5030174;28;20447;-62
2022/01/05 08:15:36;;;;;;;0.60;0.60;;;;;;;;;;5030962;28;20447;-62
2022/01/05 08:18:02;;;;;;;0.70;0.70;;;;;;;;;;5030068;28;20589;-63
2022/01/05 08:20:28;;;;;;;0.57;0.57;;;;;;;;;;5030715;28;20412;-63
2022/01/05 08:22:54;;;;;;;0.50;0.50;;;;;;;;;;5030594;28;20415;-63
2022/01/05 08:25:20;;;;;;;0.60;0.60;;;;;;;;;;5034592;28;20407;-63
2022/01/05 08:27:47;;;;;;;0.50;0.50;;;;;;;;;;5034134;28;20427;-63
2022/01/05 08:30:23;;;;;;;0.60;0.60;;;;;;;;;;5033888;28;20651;-63
2022/01/05 08:32:51;;;;;;;0.60;0.60;;;;;;;;;;5033961;28;20191;-63
2022/01/05 08:35:17;;;;;;;0.60;0.60;;;;;;;;;;5031411;28;20235;-63
2022/01/05 08:37:44;;;;;;;0.60;0.60;;;;;;;;;;5033774;28;20626;-63
2022/01/05 08:40:11;;;;;;;0.60;0.60;;;;;;;;;;5034163;28;20177;-63
2022/01/05 08:42:37;;;;;;;0.50;0.50;;;;;;;;;;5033547;28;20513;-63
2022/01/05 08:45:04;;;;;;;0.50;0.50;;;;;;;;;;5034013;28;20196;-63
2022/01/05 08:47:30;;;;;;;0.60;0.60;;;;;;;;;;5034063;28;20176;-63
2022/01/05 08:49:56;;;;;;;0.60;0.60;;;;;;;;;;5016368;28;20667;-63
2022/01/05 08:52:22;;;;;;;0.50;0.50;;;;;;;;;;5033849;28;20199;-63
2022/01/05 08:54:48;;;;;;;0.52;0.52;;;;;;;;;;5033536;28;20200;-63
2022/01/05 08:57:15;;;;;;;0.70;0.70;;;;;;;;;;5033976;28;20203;-63
2022/01/05 08:59:41;;;;;;;0.60;0.60;;;;;;;;;;5033939;28;20221;-63
2022/01/05 09:02:07;;;;;;;0.60;0.60;;;;;;;;;;5016232;28;20172;-63
2022/01/05 09:04:33;;;;;;;0.60;0.60;;;;;;;;;;5033466;28;20423;-63
2022/01/05 09:06:59;;;;;;;0.60;0.60;;;;;;;;;;5033596;28;20602;-63
2022/01/05 09:09:25;;;;;;;0.68;0.68;;;;;;;;;;5033565;28;20403;-63
2022/01/05 09:11:52;;;;;;;0.50;0.50;;;;;;;;;;5033624;28;20281;-63
2022/01/05 09:14:18;;;;;;;0.60;0.60;;;;;;;;;;5033299;28;20435;-63
2022/01/05 09:16:44;;;;;;;0.60;0.60;;;;;;;;;;5033716;28;20180;-63
2022/01/05 09:19:10;;;;;;;0.60;0.60;;;;;;;;;;5033338;28;20255;-63
2022/01/05 09:21:36;;;;;;;0.50;0.50;;;;;;;;;;5033415;28;20179;-63
2022/01/05 09:24:03;;;;;;;0.60;0.60;;;;;;;;;;5032864;28;20259;-63
2022/01/05 09:26:29;;;;;;;0.70;0.70;;;;;;;;;;5033205;28;20184;-63
2022/01/05 09:28:55;;;;;;;0.60;0.60;;;;;;;;;;5033207;28;20540;-63
2022/01/05 09:31:21;;;;;;;0.60;0.60;;;;;;;;;;5033367;28;20180;-63
2022/01/05 09:33:47;;;;;;;0.60;0.60;;;;;;;;;;5032683;28;20485;-63
2022/01/05 09:36:18;;;;;;;0.60;0.60;;;;;;;;;;5032443;28;20265;-63
2022/01/05 09:44:01;;;;;;;0.60;0.60;;;;;;;;;;5032927;28;20957;-63
2022/01/05 09:46:38;;;;;;;0.60;0.60;;;;;;;;;;5033078;28;20180;-63
2022/01/05 09:49:12;;;;;;;0.60;0.60;;;;;;;;;;5032986;28;20180;-63
2022/01/05 09:51:40;;;;;;;0.50;0.50;;;;;;;;;;5032944;28;20179;-63
2022/01/05 09:54:06;;;;;;;0.60;0.60;;;;;;;;;;5032597;28;20198;-63
2022/01/05 09:56:33;;;;;;;0.60;0.60;;;;;;;;;;5032853;28;20196;-63
2022/01/05 09:59:01;;;;;;;0.55;0.55;;;;;;;;;;5032729;28;20241;-63
2022/01/05 10:01:30;;;;;;;0.50;0.50;;;;;;;;;;5032681;28;20173;-63
2022/01/05 10:03:57;;;;;;;0.60;0.60;;;;;;;;;;5031791;28;20280;-63
2022/01/05 10:06:23;;;;;;;0.60;0.60;;;;;;;;;;5032615;28;20165;-63
2022/01/05 10:08:49;;;;;;;0.50;0.50;;;;;;;;;;5032762;28;20177;-63
2022/01/05 10:11:15;;;;;;;0.60;0.60;;;;;;;;;;5032579;28;20466;-63
2022/01/05 10:13:41;;;;;;;0.50;0.50;;;;;;;;;;5031039;28;20700;-63
2022/01/05 10:16:08;;;;;;;0.60;0.60;;;;;;;;;;5032471;28;20412;-63
2022/01/05 10:18:41;;;;;;;0.60;0.60;;;;;;;;;;5032429;28;20889;-63
2022/01/05 10:21:07;;;;;;;0.60;0.60;;;;;;;;;;5032506;28;20165;-63
2022/01/05 10:23:41;;;;;;;0.60;0.60;;;;;;;;;;5054741;22;20199;-61
2022/01/05 10:26:24;;;;;;;0.50;0.50;;;;;;;;;;5012876;28;20177;-61
2022/01/05 10:28:51;;;;;;;0.60;0.60;;;;;;;;;;5012791;28;20241;-60
2022/01/05 10:31:20;;;;;;;0.50;0.50;;;;;;;;;;5013483;28;20548;-61
2022/01/05 10:33:47;;;;;;;0.60;0.60;;;;;;;;;;5017376;28;20279;-61
2022/01/05 10:36:13;;;;;;;0.60;0.60;;;;;;;;;;5032024;28;20199;-61
2022/01/05 10:38:41;;;;;;;0.60;0.60;;;;;;;;;;5032366;28;20746;-61
2022/01/05 10:41:17;;;;;;;0.50;0.50;;;;;;;;;;5031964;28;20439;-61
2022/01/05 10:44:02;;;;;;;0.47;0.47;;;;;;;;;;5031853;28;20198;-60
2022/01/05 10:46:37;;;;;;;0.50;0.50;;;;;;;;;;5031998;28;20177;-59
2022/01/05 10:49:04;;;;;;;0.50;0.50;;;;;;;;;;5014498;28;20550;-62
2022/01/05 10:51:34;;;;;;;0.50;0.50;;;;;;;;;;5032135;28;20682;-62
2022/01/05 10:54:29;;;;;;;0.50;0.50;;;;;;;;;;5032075;28;20696;-62
2022/01/05 10:57:06;;;;;;;0.50;0.50;;;;;;;;;;5019355;28;20200;-61
2022/01/05 10:59:42;;;;;;;0.40;0.40;;;;;;;;;;5031859;28;20206;-62
2022/01/05 11:02:27;;;;;;;0.60;0.60;;;;;;;;;;5032236;28;20211;-62
2022/01/05 11:04:54;;;;;;;0.60;0.60;;;;;;;;;;5032020;28;20189;-63
2022/01/05 11:07:24;;;;;;;0.50;0.50;;;;;;;;;;5032106;28;20212;-62
2022/01/05 11:09:55;;;;;;;0.50;0.50;;;;;;;;;;5031921;28;20178;-61
2022/01/05 11:12:21;;;;;;;0.60;0.60;;;;;;;;;;5014540;28;20193;-62
2022/01/05 11:14:47;;;;;;;0.60;0.60;;;;;;;;;;5031666;28;20194;-62
2022/01/05 11:17:17;;;;;;;0.50;0.50;;;;;;;;;;5032355;28;20258;-59
2022/01/05 11:19:43;;;;;;;0.60;0.60;;;;;;;;;;5031853;28;20451;-62
2022/01/05 11:22:14;;;;;;;0.50;0.50;;;;;;;;;;5032496;28;20541;-62
2022/01/05 11:24:41;;;;;;;0.50;0.50;;;;;;;;;;5031571;28;20448;-62
2022/01/05 11:27:08;;;;;;;0.60;0.60;;;;;;;;;;5032052;28;20188;-61
2022/01/05 11:29:34;;;;;;;0.60;0.60;;;;;;;;;;5032322;28;20178;-62
2022/01/05 11:32:02;;;;;;;0.60;0.60;;;;;;;;;;5032552;28;20191;-60
2022/01/05 11:34:29;;;;;;;0.50;0.50;;;;;;;;;;5031899;28;20201;-60
2022/01/05 11:36:56;;;;;;;0.50;0.50;;;;;;;;;;5032077;28;20184;-58
2022/01/05 11:39:22;;;;;;;0.60;0.60;;;;;;;;;;5031687;28;20284;-59
2022/01/05 11:41:48;;;;;;;0.50;0.50;;;;;;;;;;5047271;28;20181;-62
2022/01/05 11:44:16;;;;;;;0.60;0.60;;;;;;;;;;5051053;28;20184;-60
2022/01/05 11:46:44;;;;;;;0.60;0.60;;;;;;;;;;5051791;28;20172;-62
2022/01/05 11:49:12;;;;;;;0.50;0.50;;;;;;;;;;5051924;28;20205;-60
2022/01/05 11:51:41;;;;;;;0.50;0.50;;;;;;;;;;5051307;28;20180;-62
2022/01/05 11:54:24;;;;;;;0.50;0.50;;;;;;;;;;5050667;28;20278;-62
2022/01/05 11:56:51;;;;;;;0.60;0.60;;;;;;;;;;5051611;28;20169;-62
2022/01/05 11:59:22;;;;;;;0.50;0.50;;;;;;;;;;5036325;28;20214;-61
2022/01/05 12:02:19;;;;;;;0.50;0.50;;;;;;;;;;5055247;28;20625;-61
2022/01/05 12:04:57;;;;;;;0.50;0.50;;;;;;;;;;5038531;28;20238;-62
2022/01/05 12:07:43;;;;;;;0.50;0.50;;;;;;;;;;5055526;28;20168;-62
2022/01/05 12:13:03;;;;;;;0.50;0.50;;;;;;;;;;5054676;28;20639;-61
2022/01/05 12:15:44;;;;;;;0.50;0.50;;;;;;;;;;5054466;28;20196;-62
2022/01/05 12:18:11;;;;;;;0.50;0.50;;;;;;;;;;5054943;28;20675;-61
2022/01/05 12:20:39;;;;;;;0.50;0.50;;;;;;;;;;5055205;28;20215;-60
2022/01/05 12:23:14;;;;;;;0.50;0.50;;;;;;;;;;5055060;28;20171;-62
2022/01/05 12:26:00;;;;;;;0.50;0.50;;;;;;;;;;5054766;28;20202;-60
2022/01/05 12:28:30;;;;;;;0.50;0.50;;;;;;;;;;5054348;28;20183;-61
2022/01/05 12:30:56;;;;;;;0.60;0.60;;;;;;;;;;5054983;28;20545;-61
2022/01/05 12:33:22;;;;;;;0.60;0.60;;;;;;;;;;5037132;28;20186;-61
2022/01/05 12:35:50;;;;;;;0.60;0.60;;;;;;;;;;5054969;28;20175;-62
2022/01/05 12:38:34;;;;;;;0.50;0.50;;;;;;;;;;5053649;28;20200;-61
2022/01/05 12:41:22;;;;;;;0.60;0.60;;;;;;;;;;5054855;28;20198;-60
2022/01/05 12:43:48;;;;;;;0.60;0.60;;;;;;;;;;5054106;28;20218;-61
2022/01/05 12:46:14;;;;;;;0.60;0.60;;;;;;;;;;5054446;28;20266;-61
2022/01/05 12:48:43;;;;;;;0.60;0.60;;;;;;;;;;5054327;28;20278;-62
2022/01/05 12:51:12;;;;;;;0.50;0.50;;;;;;;;;;5054812;28;20461;-61
2022/01/05 12:54:01;;;;;;;0.50;0.50;;;;;;;;;;5054210;28;20282;-62
2022/01/05 12:56:29;;;;;;;0.50;0.50;;;;;;;;;;5054534;28;20528;-61
2022/01/05 12:58:56;;;;;;;0.50;0.50;;;;;;;;;;5054579;28;20214;-61
2022/01/05 13:01:23;;;;;;;0.50;0.50;;;;;;;;;;5054523;28;20196;-62
2022/01/05 13:03:49;;;;;;;0.50;0.50;;;;;;;;;;5053866;28;20213;-62
2022/01/05 13:06:23;;;;;;;0.50;0.50;;;;;;;;;;5054034;28;20878;-62
2022/01/05 13:08:58;;;;;;;0.50;0.50;;;;;;;;;;5053205;28;20184;-62
2022/01/05 13:11:42;;;;;;;0.50;0.50;;;;;;;;;;5053767;28;20624;-61
2022/01/05 13:14:14;;;;;;;0.50;0.50;;;;;;;;;;5053719;28;20192;-62
2022/01/05 13:16:44;;;;;;;0.50;0.50;;;;;;;;;;5054002;28;20269;-62
2022/01/05 13:19:16;;;;;;;0.43;0.43;;;;;;;;;;5053695;28;20273;-61
2022/01/05 13:21:45;;;;;;;0.47;0.47;;;;;;;;;;5053679;28;20228;-62
2022/01/05 13:24:11;;;;;;;0.50;0.50;;;;;;;;;;5053562;28;20207;-62
2022/01/05 13:26:37;;;;;;;0.50;0.50;;;;;;;;;;5053587;28;20539;-62
2022/01/05 13:29:22;;;;;;;0.50;0.50;;;;;;;;;;5053957;28;20411;-60
2022/01/05 13:31:54;;;;;;;0.50;0.50;;;;;;;;;;5053772;28;20410;-62
2022/01/05 13:34:28;;;;;;;0.50;0.50;;;;;;;;;;5053400;28;20391;-62
2022/01/05 13:36:54;;;;;;;0.50;0.50;;;;;;;;;;5053413;28;20175;-62
2022/01/05 13:39:37;;;;;;;0.60;0.60;;;;;;;;;;5053780;28;20248;-62
2022/01/05 13:42:03;;;;;;;0.60;0.60;;;;;;;;;;5053618;28;20406;-62
2022/01/05 13:44:29;;;;;;;0.60;0.60;;;;;;;;;;5053104;28;20199;-62
2022/01/05 13:46:55;;;;;;;0.50;0.50;;;;;;;;;;5053762;28;20200;-62
2022/01/05 13:49:22;;;;;;;0.60;0.60;;;;;;;;;;5053655;28;20231;-62
2022/01/05 13:52:07;;;;;;;0.50;0.50;;;;;;;;;;5053175;28;20635;-62
2022/01/05 13:54:34;;;;;;;0.50;0.50;;;;;;;;;;5053207;28;20258;-62
2022/01/05 13:57:00;;;;;;;0.50;0.50;;;;;;;;;;5053017;28;20218;-62
2022/01/05 13:59:36;;;;;;;0.60;0.60;;;;;;;;;;5052796;28;20206;-62
2022/01/05 14:02:02;;;;;;;0.50;0.50;;;;;;;;;;5052893;28;20286;-62
2022/01/05 14:04:28;;;;;;;0.63;0.63;;;;;;;;;;5052609;28;20273;-60
2022/01/05 14:06:58;;;;;;;0.50;0.50;;;;;;;;;;5052575;28;20401;-62
2022/01/05 14:09:30;;;;;;;0.40;0.40;;;;;;;;;;5052754;28;20412;-61
2022/01/05 14:11:57;;;;;;;0.60;0.60;;;;;;;;;;5053198;28;20186;-62
2022/01/05 14:14:24;;;;;;;0.60;0.60;;;;;;;;;;5034680;28;20203;-61
2022/01/05 14:16:51;;;;;;;0.50;0.50;;;;;;;;;;5052759;28;20179;-61
2022/01/05 14:19:24;;;;;;;0.60;0.60;;;;;;;;;;5053137;28;20202;-61
2022/01/05 14:21:50;;;;;;;0.50;0.50;;;;;;;;;;5052710;28;20175;-62
2022/01/05 14:24:16;;;;;;;0.50;0.50;;;;;;;;;;5052097;28;20633;-62
2022/01/05 14:26:42;;;;;;;0.50;0.50;;;;;;;;;;5035148;28;20206;-62
2022/01/05 14:29:09;;;;;;;0.50;0.50;;;;;;;;;;5052774;28;20208;-62
2022/01/05 14:31:39;;;;;;;0.60;0.60;;;;;;;;;;5052635;28;20782;-62
2022/01/05 14:34:11;;;;;;;0.60;0.60;;;;;;;;;;5052835;28;20280;-62
2022/01/05 14:36:39;;;;;;;0.50;0.50;;;;;;;;;;5052519;28;20193;-61
2022/01/05 14:39:05;;;;;;;0.60;0.60;;;;;;;;;;5034464;28;20269;-62
2022/01/05 14:41:35;;;;;;;0.50;0.50;;;;;;;;;;5052416;28;20177;-61
2022/01/05 14:44:04;;;;;;;0.60;0.60;;;;;;;;;;5051504;28;20197;-62
2022/01/05 14:46:30;;;;;;;0.60;0.60;;;;;;;;;;5052569;28;20255;-62
2022/01/05 14:48:56;;;;;;;0.50;0.50;;;;;;;;;;5055202;28;20229;-59
2022/01/05 14:51:22;;;;;;;0.50;0.50;;;;;;;;;;5052863;28;20184;-56
2022/01/05 14:53:49;;;;;;;0.60;0.60;;;;;;;;;;5052211;28;20436;-61